sensor_id;sensor_type;location;lat;lon;timestamp;P1;durP1;ratioP1;P2;durP2;ratioP2
40433;SDS011;26146;51.114;5.654;2023-04-21T00:01:14;37.00;;;21.47;;
40433;SDS011;26146;51.114;5.654;2023-04-21T00:05:17;35.83;;;21.23;;
40433;SDS011;26146;51.114;5.654;2023-04-21T00:09:18;42.33;;;22.93;;
40433;SDS011;26146;51.114;5.654;2023-04-21T00:13:19;40.67;;;23.30;;
40433;SDS011;26146;51.114;5.654;2023-04-21T00:17:20;43.03;;;23.63;;
40433;SDS011;26146;51.114;5.654;2023-04-21T00:21:21;42.50;;;23.13;;
40433;SDS011;26146;51.114;5.654;2023-04-21T00:25:22;44.73;;;24.13;;
40433;SDS011;26146;51.114;5.654;2023-04-21T00:29:24;42.37;;;23.10;;
40433;SDS011;26146;51.114;5.654;2023-04-21T00:33:25;46.20;;;23.90;;
40433;SDS011;26146;51.114;5.654;2023-04-21T00:37:26;42.17;;;23.83;;
40433;SDS011;26146;51.114;5.654;2023-04-21T00:41:27;43.93;;;24.77;;
40433;SDS011;26146;51.114;5.654;2023-04-21T00:45:30;44.70;;;23.97;;
40433;SDS011;26146;51.114;5.654;2023-04-21T00:49:31;44.47;;;23.83;;
40433;SDS011;26146;51.114;5.654;2023-04-21T00:53:32;42.57;;;23.23;;
40433;SDS011;26146;51.114;5.654;2023-04-21T00:57:34;44.30;;;23.40;;
40433;SDS011;26146;51.114;5.654;2023-04-21T01:01:37;45.47;;;24.30;;
40433;SDS011;26146;51.114;5.654;2023-04-21T01:05:39;46.10;;;23.93;;
40433;SDS011;26146;51.114;5.654;2023-04-21T01:09:40;48.10;;;25.30;;
40433;SDS011;26146;51.114;5.654;2023-04-21T01:13:41;47.93;;;25.63;;
40433;SDS011;26146;51.114;5.654;2023-04-21T01:17:43;49.10;;;24.93;;
40433;SDS011;26146;51.114;5.654;2023-04-21T01:21:44;48.57;;;25.10;;
40433;SDS011;26146;51.114;5.654;2023-04-21T01:25:45;46.17;;;24.70;;
40433;SDS011;26146;51.114;5.654;2023-04-21T01:29:48;48.17;;;25.70;;
40433;SDS011;26146;51.114;5.654;2023-04-21T01:33:51;52.90;;;27.30;;
40433;SDS011;26146;51.114;5.654;2023-04-21T01:37:52;50.90;;;25.37;;
40433;SDS011;26146;51.114;5.654;2023-04-21T01:41:53;49.17;;;25.83;;
40433;SDS011;26146;51.114;5.654;2023-04-21T01:45:57;53.00;;;26.80;;
40433;SDS011;26146;51.114;5.654;2023-04-21T01:49:58;52.03;;;27.33;;
40433;SDS011;26146;51.114;5.654;2023-04-21T01:53:59;51.20;;;27.30;;
40433;SDS011;26146;51.114;5.654;2023-04-21T01:58:00;53.43;;;27.17;;
40433;SDS011;26146;51.114;5.654;2023-04-21T02:02:02;53.57;;;27.87;;
40433;SDS011;26146;51.114;5.654;2023-04-21T02:06:03;54.33;;;27.67;;
40433;SDS011;26146;51.114;5.654;2023-04-21T02:10:05;58.13;;;28.77;;
40433;SDS011;26146;51.114;5.654;2023-04-21T02:14:06;57.27;;;29.20;;
40433;SDS011;26146;51.114;5.654;2023-04-21T02:18:08;59.43;;;29.27;;
40433;SDS011;26146;51.114;5.654;2023-04-21T02:22:09;56.37;;;29.40;;
40433;SDS011;26146;51.114;5.654;2023-04-21T02:26:12;55.77;;;28.57;;
40433;SDS011;26146;51.114;5.654;2023-04-21T02:30:13;59.13;;;29.93;;
40433;SDS011;26146;51.114;5.654;2023-04-21T02:34:14;57.47;;;30.63;;
40433;SDS011;26146;51.114;5.654;2023-04-21T02:38:15;70.47;;;34.33;;
40433;SDS011;26146;51.114;5.654;2023-04-21T02:42:16;68.63;;;33.33;;
40433;SDS011;26146;51.114;5.654;2023-04-21T02:46:17;62.93;;;31.00;;
40433;SDS011;26146;51.114;5.654;2023-04-21T02:50:18;63.10;;;31.27;;
40433;SDS011;26146;51.114;5.654;2023-04-21T02:54:19;58.23;;;30.73;;
40433;SDS011;26146;51.114;5.654;2023-04-21T02:58:21;60.17;;;29.93;;
40433;SDS011;26146;51.114;5.654;2023-04-21T03:02:22;58.03;;;29.53;;
40433;SDS011;26146;51.114;5.654;2023-04-21T03:06:23;59.10;;;29.67;;
40433;SDS011;26146;51.114;5.654;2023-04-21T03:10:24;58.87;;;30.00;;
40433;SDS011;26146;51.114;5.654;2023-04-21T03:14:26;58.60;;;29.07;;
40433;SDS011;26146;51.114;5.654;2023-04-21T03:18:27;57.10;;;28.87;;
40433;SDS011;26146;51.114;5.654;2023-04-21T03:22:28;54.77;;;28.03;;
40433;SDS011;26146;51.114;5.654;2023-04-21T03:26:29;52.90;;;28.13;;
40433;SDS011;26146;51.114;5.654;2023-04-21T03:30:30;56.07;;;28.77;;
40433;SDS011;26146;51.114;5.654;2023-04-21T03:34:31;54.33;;;28.40;;
40433;SDS011;26146;51.114;5.654;2023-04-21T03:38:32;54.03;;;27.83;;
40433;SDS011;26146;51.114;5.654;2023-04-21T03:42:33;55.37;;;28.77;;
40433;SDS011;26146;51.114;5.654;2023-04-21T03:46:35;53.87;;;27.37;;
40433;SDS011;26146;51.114;5.654;2023-04-21T03:50:36;52.33;;;27.10;;
40433;SDS011;26146;51.114;5.654;2023-04-21T03:54:38;64.13;;;34.17;;
40433;SDS011;26146;51.114;5.654;2023-04-21T03:58:39;56.73;;;31.20;;
40433;SDS011;26146;51.114;5.654;2023-04-21T04:02:40;53.07;;;26.67;;
40433;SDS011;26146;51.114;5.654;2023-04-21T04:06:41;56.40;;;28.43;;
40433;SDS011;26146;51.114;5.654;2023-04-21T04:10:42;53.00;;;27.73;;
40433;SDS011;26146;51.114;5.654;2023-04-21T04:14:44;54.43;;;26.93;;
40433;SDS011;26146;51.114;5.654;2023-04-21T04:18:45;56.27;;;27.90;;
40433;SDS011;26146;51.114;5.654;2023-04-21T04:22:46;56.33;;;27.23;;
40433;SDS011;26146;51.114;5.654;2023-04-21T04:26:47;55.53;;;26.40;;
40433;SDS011;26146;51.114;5.654;2023-04-21T04:30:48;56.87;;;28.10;;
40433;SDS011;26146;51.114;5.654;2023-04-21T04:34:50;54.63;;;27.13;;
40433;SDS011;26146;51.114;5.654;2023-04-21T04:38:51;60.47;;;28.23;;
40433;SDS011;26146;51.114;5.654;2023-04-21T04:42:52;57.60;;;26.63;;
40433;SDS011;26146;51.114;5.654;2023-04-21T04:46:54;56.93;;;27.07;;
40433;SDS011;26146;51.114;5.654;2023-04-21T04:50:56;58.43;;;26.83;;
40433;SDS011;26146;51.114;5.654;2023-04-21T04:54:57;57.70;;;26.83;;
40433;SDS011;26146;51.114;5.654;2023-04-21T04:58:58;59.67;;;28.07;;
40433;SDS011;26146;51.114;5.654;2023-04-21T05:02:59;61.67;;;27.27;;
40433;SDS011;26146;51.114;5.654;2023-04-21T05:07:01;57.93;;;26.97;;
40433;SDS011;26146;51.114;5.654;2023-04-21T05:11:02;60.97;;;27.10;;
40433;SDS011;26146;51.114;5.654;2023-04-21T05:15:04;63.50;;;27.80;;
40433;SDS011;26146;51.114;5.654;2023-04-21T05:19:05;65.60;;;27.47;;
40433;SDS011;26146;51.114;5.654;2023-04-21T05:23:07;66.57;;;27.60;;
40433;SDS011;26146;51.114;5.654;2023-04-21T05:27:08;65.27;;;28.20;;
40433;SDS011;26146;51.114;5.654;2023-04-21T05:31:09;64.33;;;28.40;;
40433;SDS011;26146;51.114;5.654;2023-04-21T05:35:10;60.57;;;28.00;;
40433;SDS011;26146;51.114;5.654;2023-04-21T05:39:11;63.33;;;27.83;;
40433;SDS011;26146;51.114;5.654;2023-04-21T05:43:12;58.83;;;27.33;;
40433;SDS011;26146;51.114;5.654;2023-04-21T05:47:13;64.37;;;28.60;;
40433;SDS011;26146;51.114;5.654;2023-04-21T05:51:15;62.60;;;27.80;;
40433;SDS011;26146;51.114;5.654;2023-04-21T05:55:16;56.33;;;26.90;;
40433;SDS011;26146;51.114;5.654;2023-04-21T05:59:17;59.10;;;27.90;;
40433;SDS011;26146;51.114;5.654;2023-04-21T06:03:18;60.57;;;28.47;;
40433;SDS011;26146;51.114;5.654;2023-04-21T06:07:19;60.03;;;28.83;;
40433;SDS011;26146;51.114;5.654;2023-04-21T06:11:20;61.83;;;29.30;;
40433;SDS011;26146;51.114;5.654;2023-04-21T06:15:21;61.03;;;28.80;;
40433;SDS011;26146;51.114;5.654;2023-04-21T06:19:23;60.37;;;29.03;;
40433;SDS011;26146;51.114;5.654;2023-04-21T06:23:24;58.13;;;28.33;;
40433;SDS011;26146;51.114;5.654;2023-04-21T06:27:25;55.03;;;27.67;;
40433;SDS011;26146;51.114;5.654;2023-04-21T06:31:26;51.33;;;26.80;;
40433;SDS011;26146;51.114;5.654;2023-04-21T06:35:27;55.13;;;27.43;;
40433;SDS011;26146;51.114;5.654;2023-04-21T06:39:28;52.40;;;26.60;;
40433;SDS011;26146;51.114;5.654;2023-04-21T06:43:29;48.13;;;24.80;;
40433;SDS011;26146;51.114;5.654;2023-04-21T06:47:30;48.63;;;25.33;;
40433;SDS011;26146;51.114;5.654;2023-04-21T06:51:32;48.47;;;25.23;;
40433;SDS011;26146;51.114;5.654;2023-04-21T06:55:33;45.97;;;23.90;;
40433;SDS011;26146;51.114;5.654;2023-04-21T06:59:34;45.17;;;24.60;;
40433;SDS011;26146;51.114;5.654;2023-04-21T07:03:35;41.23;;;23.73;;
40433;SDS011;26146;51.114;5.654;2023-04-21T07:07:36;43.47;;;23.20;;
40433;SDS011;26146;51.114;5.654;2023-04-21T07:11:37;43.47;;;24.10;;
40433;SDS011;26146;51.114;5.654;2023-04-21T07:15:38;41.43;;;23.13;;
40433;SDS011;26146;51.114;5.654;2023-04-21T07:19:39;40.83;;;22.93;;
40433;SDS011;26146;51.114;5.654;2023-04-21T07:23:40;40.40;;;22.17;;
40433;SDS011;26146;51.114;5.654;2023-04-21T07:27:41;37.87;;;21.60;;
40433;SDS011;26146;51.114;5.654;2023-04-21T07:31:42;37.23;;;20.97;;
40433;SDS011;26146;51.114;5.654;2023-04-21T07:35:43;34.57;;;20.17;;
40433;SDS011;26146;51.114;5.654;2023-04-21T07:39:45;33.73;;;19.13;;
40433;SDS011;26146;51.114;5.654;2023-04-21T07:43:46;30.57;;;17.70;;
40433;SDS011;26146;51.114;5.654;2023-04-21T07:47:47;31.07;;;17.27;;
40433;SDS011;26146;51.114;5.654;2023-04-21T07:51:48;29.17;;;17.00;;
40433;SDS011;26146;51.114;5.654;2023-04-21T07:55:49;30.00;;;17.53;;
40433;SDS011;26146;51.114;5.654;2023-04-21T07:59:50;27.80;;;16.80;;
40433;SDS011;26146;51.114;5.654;2023-04-21T08:03:51;27.70;;;16.43;;
40433;SDS011;26146;51.114;5.654;2023-04-21T08:07:52;25.73;;;15.90;;
40433;SDS011;26146;51.114;5.654;2023-04-21T08:11:53;28.37;;;15.93;;
40433;SDS011;26146;51.114;5.654;2023-04-21T08:15:54;28.20;;;15.87;;
40433;SDS011;26146;51.114;5.654;2023-04-21T08:19:55;26.20;;;15.10;;
40433;SDS011;26146;51.114;5.654;2023-04-21T08:23:56;25.63;;;14.97;;
40433;SDS011;26146;51.114;5.654;2023-04-21T08:27:57;25.30;;;14.90;;
40433;SDS011;26146;51.114;5.654;2023-04-21T08:31:58;26.20;;;14.67;;
40433;SDS011;26146;51.114;5.654;2023-04-21T08:36:00;27.20;;;15.57;;
40433;SDS011;26146;51.114;5.654;2023-04-21T08:40:03;25.37;;;14.63;;
40433;SDS011;26146;51.114;5.654;2023-04-21T08:44:05;24.40;;;14.43;;
40433;SDS011;26146;51.114;5.654;2023-04-21T08:48:06;23.53;;;13.60;;
40433;SDS011;26146;51.114;5.654;2023-04-21T08:52:10;20.97;;;12.50;;
40433;SDS011;26146;51.114;5.654;2023-04-21T08:56:13;21.63;;;12.87;;
40433;SDS011;26146;51.114;5.654;2023-04-21T09:00:14;18.47;;;11.03;;
40433;SDS011;26146;51.114;5.654;2023-04-21T09:04:15;19.63;;;12.00;;
40433;SDS011;26146;51.114;5.654;2023-04-21T09:08:17;20.27;;;11.10;;
40433;SDS011;26146;51.114;5.654;2023-04-21T09:12:18;20.03;;;11.50;;
40433;SDS011;26146;51.114;5.654;2023-04-21T09:16:20;18.37;;;10.77;;
40433;SDS011;26146;51.114;5.654;2023-04-21T09:20:21;18.30;;;10.53;;
40433;SDS011;26146;51.114;5.654;2023-04-21T09:24:23;18.67;;;11.00;;
40433;SDS011;26146;51.114;5.654;2023-04-21T09:28:24;15.17;;;8.80;;
40433;SDS011;26146;51.114;5.654;2023-04-21T09:32:35;17.07;;;9.23;;
40433;SDS011;26146;51.114;5.654;2023-04-21T09:36:40;17.27;;;8.80;;
40433;SDS011;26146;51.114;5.654;2023-04-21T09:40:42;14.93;;;8.07;;
40433;SDS011;26146;51.114;5.654;2023-04-21T09:44:42;15.03;;;7.87;;
40433;SDS011;26146;51.114;5.654;2023-04-21T09:48:44;16.03;;;8.57;;
40433;SDS011;26146;51.114;5.654;2023-04-21T09:52:46;14.70;;;7.90;;
40433;SDS011;26146;51.114;5.654;2023-04-21T09:56:51;15.10;;;7.33;;
40433;SDS011;26146;51.114;5.654;2023-04-21T10:00:54;13.83;;;7.67;;
40433;SDS011;26146;51.114;5.654;2023-04-21T10:04:57;14.90;;;8.27;;
40433;SDS011;26146;51.114;5.654;2023-04-21T10:08:58;16.03;;;8.33;;
40433;SDS011;26146;51.114;5.654;2023-04-21T10:13:00;14.67;;;8.00;;
40433;SDS011;26146;51.114;5.654;2023-04-21T10:17:03;13.90;;;7.90;;
40433;SDS011;26146;51.114;5.654;2023-04-21T10:21:09;15.05;;;8.00;;
40433;SDS011;26146;51.114;5.654;2023-04-21T10:25:12;13.38;;;7.40;;
40433;SDS011;26146;51.114;5.654;2023-04-21T10:29:14;13.40;;;7.40;;
40433;SDS011;26146;51.114;5.654;2023-04-21T10:33:16;14.32;;;8.35;;
40433;SDS011;26146;51.114;5.654;2023-04-21T10:37:17;15.00;;;8.15;;
40433;SDS011;26146;51.114;5.654;2023-04-21T10:41:25;15.32;;;7.50;;
40433;SDS011;26146;51.114;5.654;2023-04-21T10:45:33;14.60;;;7.95;;
40433;SDS011;26146;51.114;5.654;2023-04-21T10:49:38;16.30;;;8.63;;
40433;SDS011;26146;51.114;5.654;2023-04-21T10:53:43;16.00;;;8.88;;
40433;SDS011;26146;51.114;5.654;2023-04-21T10:57:45;17.55;;;10.25;;
40433;SDS011;26146;51.114;5.654;2023-04-21T11:01:46;16.60;;;9.65;;
40433;SDS011;26146;51.114;5.654;2023-04-21T11:05:47;15.85;;;9.30;;
40433;SDS011;26146;51.114;5.654;2023-04-21T11:09:59;18.30;;;10.50;;
40433;SDS011;26146;51.114;5.654;2023-04-21T11:14:01;17.95;;;9.82;;
40433;SDS011;26146;51.114;5.654;2023-04-21T11:18:02;18.20;;;10.65;;
40433;SDS011;26146;51.114;5.654;2023-04-21T11:22:04;18.20;;;10.07;;
40433;SDS011;26146;51.114;5.654;2023-04-21T11:26:06;14.57;;;8.23;;
40433;SDS011;26146;51.114;5.654;2023-04-21T11:30:07;18.05;;;10.52;;
40433;SDS011;26146;51.114;5.654;2023-04-21T11:34:09;17.33;;;9.98;;
40433;SDS011;26146;51.114;5.654;2023-04-21T11:38:10;17.55;;;9.55;;
40433;SDS011;26146;51.114;5.654;2023-04-21T11:42:19;16.20;;;8.48;;
40433;SDS011;26146;51.114;5.654;2023-04-21T11:46:25;14.40;;;8.13;;
40433;SDS011;26146;51.114;5.654;2023-04-21T11:50:30;15.60;;;7.85;;
40433;SDS011;26146;51.114;5.654;2023-04-21T11:54:32;15.57;;;9.13;;
40433;SDS011;26146;51.114;5.654;2023-04-21T11:58:33;16.00;;;8.25;;
40433;SDS011;26146;51.114;5.654;2023-04-21T12:02:34;15.65;;;8.15;;
40433;SDS011;26146;51.114;5.654;2023-04-21T12:06:36;14.77;;;7.50;;
40433;SDS011;26146;51.114;5.654;2023-04-21T12:10:37;13.93;;;7.20;;
40433;SDS011;26146;51.114;5.654;2023-04-21T12:14:43;16.90;;;9.15;;
40433;SDS011;26146;51.114;5.654;2023-04-21T12:18:46;15.15;;;7.78;;
40433;SDS011;26146;51.114;5.654;2023-04-21T12:22:54;13.75;;;8.05;;
40433;SDS011;26146;51.114;5.654;2023-04-21T12:26:55;14.13;;;7.65;;
40433;SDS011;26146;51.114;5.654;2023-04-21T12:30:57;13.95;;;8.00;;
40433;SDS011;26146;51.114;5.654;2023-04-21T12:34:57;13.88;;;7.72;;
40433;SDS011;26146;51.114;5.654;2023-04-21T12:38:59;14.10;;;7.72;;
40433;SDS011;26146;51.114;5.654;2023-04-21T12:43:00;13.85;;;7.50;;
40433;SDS011;26146;51.114;5.654;2023-04-21T12:47:02;13.82;;;8.25;;
40433;SDS011;26146;51.114;5.654;2023-04-21T12:51:03;14.23;;;8.10;;
40433;SDS011;26146;51.114;5.654;2023-04-21T12:55:04;15.60;;;8.05;;
40433;SDS011;26146;51.114;5.654;2023-04-21T12:59:05;15.70;;;9.52;;
40433;SDS011;26146;51.114;5.654;2023-04-21T13:03:07;13.75;;;7.88;;
40433;SDS011;26146;51.114;5.654;2023-04-21T13:07:08;16.10;;;8.63;;
40433;SDS011;26146;51.114;5.654;2023-04-21T13:11:09;16.33;;;9.43;;
40433;SDS011;26146;51.114;5.654;2023-04-21T13:15:11;16.95;;;9.65;;
40433;SDS011;26146;51.114;5.654;2023-04-21T13:19:12;15.80;;;9.43;;
40433;SDS011;26146;51.114;5.654;2023-04-21T13:23:13;17.25;;;9.75;;
40433;SDS011;26146;51.114;5.654;2023-04-21T13:27:15;16.60;;;9.90;;
40433;SDS011;26146;51.114;5.654;2023-04-21T13:31:16;18.40;;;10.20;;
40433;SDS011;26146;51.114;5.654;2023-04-21T13:35:17;16.10;;;9.07;;
40433;SDS011;26146;51.114;5.654;2023-04-21T13:39:19;15.98;;;9.18;;
40433;SDS011;26146;51.114;5.654;2023-04-21T13:43:20;16.25;;;9.60;;
40433;SDS011;26146;51.114;5.654;2023-04-21T13:47:22;16.48;;;9.10;;
40433;SDS011;26146;51.114;5.654;2023-04-21T13:51:23;15.77;;;9.52;;
40433;SDS011;26146;51.114;5.654;2023-04-21T13:55:24;16.05;;;9.70;;
40433;SDS011;26146;51.114;5.654;2023-04-21T13:59:26;15.55;;;8.60;;
40433;SDS011;26146;51.114;5.654;2023-04-21T14:03:27;15.77;;;8.88;;
40433;SDS011;26146;51.114;5.654;2023-04-21T14:07:29;15.43;;;8.98;;
40433;SDS011;26146;51.114;5.654;2023-04-21T14:11:31;16.45;;;8.80;;
40433;SDS011;26146;51.114;5.654;2023-04-21T14:15:32;14.20;;;7.40;;
40433;SDS011;26146;51.114;5.654;2023-04-21T14:19:33;12.55;;;6.90;;
40433;SDS011;26146;51.114;5.654;2023-04-21T14:23:35;14.77;;;6.05;;
40433;SDS011;26146;51.114;5.654;2023-04-21T14:27:36;11.93;;;6.10;;
40433;SDS011;26146;51.114;5.654;2023-04-21T14:31:38;12.10;;;6.10;;
40433;SDS011;26146;51.114;5.654;2023-04-21T14:35:39;10.07;;;5.10;;
40433;SDS011;26146;51.114;5.654;2023-04-21T14:39:41;13.30;;;5.05;;
40433;SDS011;26146;51.114;5.654;2023-04-21T14:43:42;11.35;;;5.90;;
40433;SDS011;26146;51.114;5.654;2023-04-21T14:47:44;11.18;;;5.50;;
40433;SDS011;26146;51.114;5.654;2023-04-21T14:51:45;12.27;;;5.30;;
40433;SDS011;26146;51.114;5.654;2023-04-21T14:55:49;10.60;;;5.30;;
40433;SDS011;26146;51.114;5.654;2023-04-21T14:59:50;13.30;;;5.30;;
40433;SDS011;26146;51.114;5.654;2023-04-21T15:03:52;9.82;;;4.18;;
40433;SDS011;26146;51.114;5.654;2023-04-21T15:07:56;10.98;;;4.53;;
40433;SDS011;26146;51.114;5.654;2023-04-21T15:11:57;9.10;;;4.10;;
40433;SDS011;26146;51.114;5.654;2023-04-21T15:15:59;8.85;;;4.65;;
40433;SDS011;26146;51.114;5.654;2023-04-21T15:20:00;9.32;;;3.63;;
40433;SDS011;26146;51.114;5.654;2023-04-21T15:24:02;7.63;;;3.10;;
40433;SDS011;26146;51.114;5.654;2023-04-21T15:28:03;7.55;;;3.00;;
40433;SDS011;26146;51.114;5.654;2023-04-21T15:32:06;7.97;;;3.00;;
40433;SDS011;26146;51.114;5.654;2023-04-21T15:36:07;7.45;;;3.00;;
40433;SDS011;26146;51.114;5.654;2023-04-21T15:40:09;5.80;;;2.00;;
40433;SDS011;26146;51.114;5.654;2023-04-21T15:44:10;6.03;;;2.00;;
40433;SDS011;26146;51.114;5.654;2023-04-21T15:48:11;6.65;;;1.98;;
40433;SDS011;26146;51.114;5.654;2023-04-21T15:52:16;6.90;;;2.50;;
40433;SDS011;26146;51.114;5.654;2023-04-21T15:56:17;7.32;;;2.50;;
40433;SDS011;26146;51.114;5.654;2023-04-21T16:00:18;6.65;;;2.60;;
40433;SDS011;26146;51.114;5.654;2023-04-21T16:04:19;8.13;;;2.38;;
40433;SDS011;26146;51.114;5.654;2023-04-21T16:08:20;6.13;;;1.92;;
40433;SDS011;26146;51.114;5.654;2023-04-21T16:12:21;6.22;;;2.10;;
40433;SDS011;26146;51.114;5.654;2023-04-21T16:16:23;5.95;;;2.15;;
40433;SDS011;26146;51.114;5.654;2023-04-21T16:20:24;6.38;;;1.73;;
40433;SDS011;26146;51.114;5.654;2023-04-21T16:24:25;4.70;;;1.40;;
40433;SDS011;26146;51.114;5.654;2023-04-21T16:28:26;7.10;;;2.30;;
40433;SDS011;26146;51.114;5.654;2023-04-21T16:32:28;3.42;;;1.20;;
40433;SDS011;26146;51.114;5.654;2023-04-21T16:36:29;5.50;;;1.70;;
40433;SDS011;26146;51.114;5.654;2023-04-21T16:40:31;4.70;;;1.10;;
40433;SDS011;26146;51.114;5.654;2023-04-21T16:44:32;4.85;;;1.10;;
40433;SDS011;26146;51.114;5.654;2023-04-21T16:48:34;6.82;;;1.50;;
40433;SDS011;26146;51.114;5.654;2023-04-21T16:52:35;5.30;;;1.33;;
40433;SDS011;26146;51.114;5.654;2023-04-21T16:56:36;5.07;;;1.20;;
40433;SDS011;26146;51.114;5.654;2023-04-21T17:00:38;3.97;;;1.20;;
40433;SDS011;26146;51.114;5.654;2023-04-21T17:04:39;4.50;;;1.20;;
40433;SDS011;26146;51.114;5.654;2023-04-21T17:08:40;4.45;;;1.10;;
40433;SDS011;26146;51.114;5.654;2023-04-21T17:12:41;3.58;;;1.00;;
40433;SDS011;26146;51.114;5.654;2023-04-21T17:16:42;4.53;;;1.23;;
40433;SDS011;26146;51.114;5.654;2023-04-21T17:20:44;5.20;;;1.20;;
40433;SDS011;26146;51.114;5.654;2023-04-21T17:24:45;4.40;;;1.23;;
40433;SDS011;26146;51.114;5.654;2023-04-21T17:28:46;4.53;;;1.50;;
40433;SDS011;26146;51.114;5.654;2023-04-21T17:32:48;7.85;;;2.45;;
40433;SDS011;26146;51.114;5.654;2023-04-21T17:36:49;4.78;;;1.25;;
40433;SDS011;26146;51.114;5.654;2023-04-21T17:40:50;4.07;;;1.00;;
40433;SDS011;26146;51.114;5.654;2023-04-21T17:44:51;4.53;;;1.10;;
40433;SDS011;26146;51.114;5.654;2023-04-21T17:48:52;8.73;;;1.63;;
40433;SDS011;26146;51.114;5.654;2023-04-21T17:52:54;6.15;;;1.40;;
40433;SDS011;26146;51.114;5.654;2023-04-21T17:56:55;5.97;;;1.60;;
40433;SDS011;26146;51.114;5.654;2023-04-21T18:00:57;6.20;;;1.65;;
40433;SDS011;26146;51.114;5.654;2023-04-21T18:04:58;5.45;;;1.80;;
40433;SDS011;26146;51.114;5.654;2023-04-21T18:08:59;6.43;;;1.60;;
40433;SDS011;26146;51.114;5.654;2023-04-21T18:13:01;5.13;;;1.75;;
40433;SDS011;26146;51.114;5.654;2023-04-21T18:17:02;6.80;;;2.00;;
40433;SDS011;26146;51.114;5.654;2023-04-21T18:21:03;7.75;;;2.38;;
40433;SDS011;26146;51.114;5.654;2023-04-21T18:25:04;7.28;;;2.20;;
40433;SDS011;26146;51.114;5.654;2023-04-21T18:29:05;6.45;;;2.13;;
40433;SDS011;26146;51.114;5.654;2023-04-21T18:33:07;6.88;;;2.20;;
40433;SDS011;26146;51.114;5.654;2023-04-21T18:37:09;6.30;;;2.28;;
40433;SDS011;26146;51.114;5.654;2023-04-21T18:41:10;8.63;;;2.60;;
40433;SDS011;26146;51.114;5.654;2023-04-21T18:45:11;7.63;;;2.40;;
40433;SDS011;26146;51.114;5.654;2023-04-21T18:49:13;5.70;;;2.10;;
40433;SDS011;26146;51.114;5.654;2023-04-21T18:53:14;6.95;;;2.05;;
40433;SDS011;26146;51.114;5.654;2023-04-21T18:57:15;6.40;;;2.10;;
40433;SDS011;26146;51.114;5.654;2023-04-21T19:01:17;6.97;;;2.30;;
40433;SDS011;26146;51.114;5.654;2023-04-21T19:05:18;6.60;;;2.33;;
40433;SDS011;26146;51.114;5.654;2023-04-21T19:09:19;6.65;;;2.65;;
40433;SDS011;26146;51.114;5.654;2023-04-21T19:13:21;7.43;;;2.70;;
40433;SDS011;26146;51.114;5.654;2023-04-21T19:17:22;9.75;;;4.00;;
40433;SDS011;26146;51.114;5.654;2023-04-21T19:21:23;8.15;;;3.58;;
40433;SDS011;26146;51.114;5.654;2023-04-21T19:25:25;8.40;;;3.37;;
40433;SDS011;26146;51.114;5.654;2023-04-21T19:29:26;5.50;;;2.10;;
40433;SDS011;26146;51.114;5.654;2023-04-21T19:33:27;5.97;;;1.63;;
40433;SDS011;26146;51.114;5.654;2023-04-21T19:37:28;5.20;;;1.23;;
40433;SDS011;26146;51.114;5.654;2023-04-21T19:41:30;4.80;;;1.30;;
40433;SDS011;26146;51.114;5.654;2023-04-21T19:45:31;4.97;;;1.27;;
40433;SDS011;26146;51.114;5.654;2023-04-21T19:49:32;5.70;;;1.57;;
40433;SDS011;26146;51.114;5.654;2023-04-21T19:53:33;6.37;;;1.90;;
40433;SDS011;26146;51.114;5.654;2023-04-21T19:57:34;7.57;;;2.43;;
40433;SDS011;26146;51.114;5.654;2023-04-21T20:01:36;6.97;;;2.40;;
40433;SDS011;26146;51.114;5.654;2023-04-21T20:05:37;7.07;;;2.20;;
40433;SDS011;26146;51.114;5.654;2023-04-21T20:09:38;6.80;;;2.40;;
40433;SDS011;26146;51.114;5.654;2023-04-21T20:13:39;7.27;;;2.50;;
40433;SDS011;26146;51.114;5.654;2023-04-21T20:17:40;7.37;;;2.73;;
40433;SDS011;26146;51.114;5.654;2023-04-21T20:21:41;6.13;;;2.60;;
40433;SDS011;26146;51.114;5.654;2023-04-21T20:25:43;7.63;;;3.10;;
40433;SDS011;26146;51.114;5.654;2023-04-21T20:29:44;8.47;;;3.33;;
40433;SDS011;26146;51.114;5.654;2023-04-21T20:33:46;8.27;;;3.30;;
40433;SDS011;26146;51.114;5.654;2023-04-21T20:37:47;7.60;;;3.27;;
40433;SDS011;26146;51.114;5.654;2023-04-21T20:41:49;7.70;;;3.17;;
40433;SDS011;26146;51.114;5.654;2023-04-21T20:45:50;8.00;;;3.10;;
40433;SDS011;26146;51.114;5.654;2023-04-21T20:49:51;7.87;;;3.30;;
40433;SDS011;26146;51.114;5.654;2023-04-21T20:53:53;9.53;;;3.90;;
40433;SDS011;26146;51.114;5.654;2023-04-21T20:57:55;8.27;;;3.63;;
40433;SDS011;26146;51.114;5.654;2023-04-21T21:01:56;8.77;;;3.57;;
40433;SDS011;26146;51.114;5.654;2023-04-21T21:05:57;8.17;;;3.60;;
40433;SDS011;26146;51.114;5.654;2023-04-21T21:10:00;10.13;;;3.73;;
40433;SDS011;26146;51.114;5.654;2023-04-21T21:14:02;8.23;;;3.87;;
40433;SDS011;26146;51.114;5.654;2023-04-21T21:18:03;12.57;;;4.90;;
40433;SDS011;26146;51.114;5.654;2023-04-21T21:22:05;8.50;;;4.20;;
40433;SDS011;26146;51.114;5.654;2023-04-21T21:26:06;11.43;;;4.50;;
40433;SDS011;26146;51.114;5.654;2023-04-21T21:30:07;11.83;;;5.40;;
40433;SDS011;26146;51.114;5.654;2023-04-21T21:34:09;12.97;;;5.33;;
40433;SDS011;26146;51.114;5.654;2023-04-21T21:38:10;10.30;;;4.77;;
40433;SDS011;26146;51.114;5.654;2023-04-21T21:42:11;9.33;;;4.30;;
40433;SDS011;26146;51.114;5.654;2023-04-21T21:46:12;9.57;;;3.90;;
40433;SDS011;26146;51.114;5.654;2023-04-21T21:50:13;8.90;;;4.07;;
40433;SDS011;26146;51.114;5.654;2023-04-21T21:54:14;10.00;;;4.70;;
40433;SDS011;26146;51.114;5.654;2023-04-21T21:58:15;10.90;;;5.07;;
40433;SDS011;26146;51.114;5.654;2023-04-21T22:02:16;9.70;;;4.90;;
40433;SDS011;26146;51.114;5.654;2023-04-21T22:06:17;12.00;;;5.37;;
40433;SDS011;26146;51.114;5.654;2023-04-21T22:10:22;9.97;;;4.67;;
40433;SDS011;26146;51.114;5.654;2023-04-21T22:14:23;9.90;;;4.97;;
40433;SDS011;26146;51.114;5.654;2023-04-21T22:18:24;10.63;;;5.03;;
40433;SDS011;26146;51.114;5.654;2023-04-21T22:22:26;10.13;;;4.60;;
40433;SDS011;26146;51.114;5.654;2023-04-21T22:26:27;9.77;;;4.60;;
40433;SDS011;26146;51.114;5.654;2023-04-21T22:30:28;9.20;;;4.43;;
40433;SDS011;26146;51.114;5.654;2023-04-21T22:34:29;10.37;;;4.83;;
40433;SDS011;26146;51.114;5.654;2023-04-21T22:38:31;9.63;;;4.77;;
40433;SDS011;26146;51.114;5.654;2023-04-21T22:42:31;11.00;;;4.87;;
40433;SDS011;26146;51.114;5.654;2023-04-21T22:46:33;9.97;;;5.30;;
40433;SDS011;26146;51.114;5.654;2023-04-21T22:50:34;11.80;;;5.00;;
40433;SDS011;26146;51.114;5.654;2023-04-21T22:54:35;10.23;;;5.20;;
40433;SDS011;26146;51.114;5.654;2023-04-21T22:58:36;10.10;;;5.00;;
40433;SDS011;26146;51.114;5.654;2023-04-21T23:02:37;9.77;;;4.73;;
40433;SDS011;26146;51.114;5.654;2023-04-21T23:06:38;10.90;;;5.07;;
40433;SDS011;26146;51.114;5.654;2023-04-21T23:10:39;10.17;;;4.60;;
40433;SDS011;26146;51.114;5.654;2023-04-21T23:14:40;9.87;;;4.97;;
40433;SDS011;26146;51.114;5.654;2023-04-21T23:18:41;10.00;;;4.93;;
40433;SDS011;26146;51.114;5.654;2023-04-21T23:22:42;10.23;;;5.23;;
40433;SDS011;26146;51.114;5.654;2023-04-21T23:26:43;11.93;;;5.23;;
40433;SDS011;26146;51.114;5.654;2023-04-21T23:30:44;11.63;;;5.07;;
40433;SDS011;26146;51.114;5.654;2023-04-21T23:34:46;11.93;;;4.60;;
40433;SDS011;26146;51.114;5.654;2023-04-21T23:38:47;9.97;;;4.93;;
40433;SDS011;26146;51.114;5.654;2023-04-21T23:42:48;9.80;;;4.60;;
40433;SDS011;26146;51.114;5.654;2023-04-21T23:46:49;9.57;;;4.90;;
40433;SDS011;26146;51.114;5.654;2023-04-21T23:50:50;9.93;;;4.90;;